Seatac, Washington
Current Conditions -  °F | °C
As of 2:53 AM on Wednesday 22 Oct 2014 (Local Time) from KSEA Reporting Station
Light Rain Light Rain  
Wind Chill: 57°   Ceiling: 4800
Heat Index: 57°   Visibility: 10mi
Dew Point: 48°   Wind: 10mph
Humidity: 72%   Direction: 190°S
Pressure: 29.69"   Gusts: NA
Location:  47.45°N, 122.308°W
Report Text: KSEA 220953Z 19009KT 10SM -RA OVC048 14/09 A2969 RMK AO2 RAB35 SLP059 P0000 T01390089
Loading
Personal Weather Stations






























Interactive Weather Map
Tropical Storm Tracking
New forecast layout! Learn more

10-Day Weather Forecast

Advertisements
Track Severe Weather on mobile